createdAt,value
2023-05-02T00:00:04.850Z,26.23
2023-05-02T00:02:53.803Z,26.30
2023-05-02T00:05:22.365Z,25.60
2023-05-02T00:07:51.321Z,24.33
2023-05-02T00:10:21.054Z,23.73
2023-05-02T00:12:49.782Z,26.20
2023-05-02T00:15:18.172Z,23.13
2023-05-02T00:17:46.772Z,21.27
2023-05-02T00:20:15.117Z,21.17
2023-05-02T00:22:43.510Z,23.43
2023-05-02T00:25:16.117Z,24.07
2023-05-02T00:27:46.883Z,22.40
2023-05-02T00:30:16.320Z,21.63
2023-05-02T00:32:44.934Z,21.10
2023-05-02T00:35:13.241Z,21.37
2023-05-02T00:37:41.938Z,18.60
2023-05-02T00:40:10.986Z,19.90
2023-05-02T00:42:39.493Z,20.13
2023-05-02T00:45:10.076Z,20.10
2023-05-02T00:47:39.090Z,19.87
2023-05-02T00:50:08.610Z,20.70
2023-05-02T00:52:38.550Z,20.83
2023-05-02T00:55:07.977Z,20.30
2023-05-02T00:57:36.580Z,20.93
2023-05-02T01:00:06.792Z,22.20
2023-05-02T01:02:46.800Z,22.73
2023-05-02T01:05:20.158Z,22.97
2023-05-02T01:08:04.613Z,17.17
2023-05-02T01:10:48.623Z,18.07
2023-05-02T01:13:23.118Z,19.07
2023-05-02T01:15:54.369Z,18.92
2023-05-02T01:18:26.762Z,20.13
2023-05-02T01:21:00.132Z,18.83
2023-05-02T01:23:36.847Z,12.70
2023-05-02T01:26:16.802Z,11.93
2023-05-02T01:28:59.573Z,10.23
2023-05-02T01:31:30.037Z,8.73
2023-05-02T01:34:01.306Z,10.03
2023-05-02T01:36:32.596Z,13.40
2023-05-02T01:39:03.501Z,13.87
2023-05-02T01:41:34.979Z,14.57
2023-05-02T01:44:06.589Z,15.47
2023-05-02T01:46:38.239Z,15.23
2023-05-02T01:49:09.239Z,13.33
2023-05-02T01:51:41.770Z,14.07
2023-05-02T01:54:13.924Z,15.13
2023-05-02T01:56:43.821Z,14.47
2023-05-02T01:59:16.373Z,13.47
2023-05-02T02:01:46.099Z,10.70
2023-05-02T02:04:16.482Z,9.63
2023-05-02T02:06:48.710Z,9.00
2023-05-02T02:09:17.557Z,9.13
2023-05-02T02:11:50.399Z,9.63
2023-05-02T02:14:24.009Z,8.70
2023-05-02T02:16:56.495Z,7.80
2023-05-02T02:19:26.224Z,8.70
2023-05-02T02:21:56.827Z,8.80
2023-05-02T02:24:27.122Z,8.87
2023-05-02T02:26:55.961Z,8.73
2023-05-02T02:29:26.235Z,8.83
2023-05-02T02:31:54.468Z,8.97
2023-05-02T02:34:23.551Z,8.33
2023-05-02T02:36:58.963Z,8.93
2023-05-02T02:39:45.254Z,8.07
2023-05-02T02:42:19.493Z,8.07
2023-05-02T02:44:57.330Z,9.33
2023-05-02T02:47:32.248Z,8.43
2023-05-02T02:50:12.169Z,8.63
2023-05-02T02:52:51.383Z,8.77
2023-05-02T02:55:30.354Z,8.80
2023-05-02T02:58:03.559Z,8.90
2023-05-02T03:00:34.655Z,9.40
2023-05-02T03:03:03.036Z,8.67
2023-05-02T03:05:34.488Z,9.37
2023-05-02T03:08:03.379Z,8.97
2023-05-02T03:10:33.728Z,9.20
2023-05-02T03:13:02.233Z,8.77
2023-05-02T03:16:19.275Z,8.57
2023-05-02T03:18:47.994Z,8.97
2023-05-02T03:21:16.468Z,10.53
2023-05-02T03:23:44.988Z,14.40
2023-05-02T03:26:13.919Z,11.70
2023-05-02T03:28:42.537Z,10.50
2023-05-02T03:31:13.251Z,10.23
2023-05-02T03:33:41.511Z,9.77
2023-05-02T03:36:10.200Z,8.85
2023-05-02T03:38:39.191Z,9.45
2023-05-02T03:41:10.636Z,9.90
2023-05-02T03:43:39.013Z,10.00
2023-05-02T03:46:09.300Z,8.97
2023-05-02T03:48:42.149Z,9.45
2023-05-02T03:51:10.828Z,10.07
2023-05-02T03:53:44.408Z,11.93
2023-05-02T03:56:13.711Z,12.30
2023-05-02T03:58:50.092Z,10.10
2023-05-02T04:01:22.864Z,9.97
2023-05-02T04:03:54.513Z,8.83
2023-05-02T04:06:25.811Z,8.83
2023-05-02T04:08:59.824Z,8.88
2023-05-02T04:11:35.662Z,8.77
2023-05-02T04:14:06.244Z,8.63
2023-05-02T04:16:35.760Z,9.32
2023-05-02T04:19:06.333Z,9.10
2023-05-02T04:21:38.240Z,9.32
2023-05-02T04:24:09.016Z,8.60
2023-05-02T04:26:38.280Z,8.90
2023-05-02T04:29:09.912Z,9.33
2023-05-02T04:31:38.915Z,7.70
2023-05-02T04:34:08.968Z,9.07
2023-05-02T04:36:43.299Z,8.13
2023-05-02T04:39:14.655Z,8.55
2023-05-02T04:41:49.725Z,8.73
2023-05-02T04:44:17.992Z,8.77
2023-05-02T04:46:46.861Z,9.10
2023-05-02T04:49:16.542Z,8.27
2023-05-02T04:51:46.081Z,8.77
2023-05-02T04:54:15.703Z,9.23
2023-05-02T04:56:46.010Z,8.43
2023-05-02T04:59:14.870Z,7.90
2023-05-02T05:01:43.881Z,8.38
2023-05-02T05:04:12.620Z,7.82
2023-05-02T05:06:42.867Z,8.55
2023-05-02T05:09:11.681Z,8.85
2023-05-02T05:11:41.870Z,9.27
2023-05-02T05:14:11.888Z,8.25
2023-05-02T05:16:42.745Z,9.55
2023-05-02T05:19:11.610Z,8.77
2023-05-02T05:21:40.257Z,8.15
2023-05-02T05:24:10.662Z,9.27
2023-05-02T05:26:39.536Z,8.70
2023-05-02T05:29:08.294Z,8.38
2023-05-02T05:31:42.515Z,9.00
2023-05-02T05:34:12.751Z,9.07
2023-05-02T05:36:42.158Z,9.20
2023-05-02T05:39:11.988Z,9.02
2023-05-02T05:41:43.210Z,9.60
2023-05-02T05:44:13.161Z,8.98
2023-05-02T05:46:41.902Z,8.90
2023-05-02T05:49:12.577Z,8.90
2023-05-02T05:51:42.741Z,8.45
2023-05-02T05:54:12.883Z,9.43
2023-05-02T05:56:41.518Z,9.25
2023-05-02T05:59:14.410Z,8.82
2023-05-02T06:01:43.679Z,8.90
2023-05-02T06:04:12.832Z,8.68
2023-05-02T06:06:44.602Z,8.70
2023-05-02T06:09:14.296Z,8.73
2023-05-02T06:11:42.872Z,9.10
2023-05-02T06:14:11.690Z,8.73
2023-05-02T06:16:40.410Z,8.75
2023-05-02T06:19:08.828Z,8.90
2023-05-02T06:21:37.925Z,9.00
2023-05-02T06:24:06.781Z,8.38
2023-05-02T06:26:37.449Z,8.32
2023-05-02T06:29:05.756Z,9.50
2023-05-02T06:31:34.638Z,11.13
2023-05-02T06:34:03.037Z,11.48
2023-05-02T06:36:31.602Z,10.90
2023-05-02T06:38:59.986Z,11.05
2023-05-02T06:41:28.409Z,9.90
2023-05-02T06:43:57.938Z,10.80
2023-05-02T06:46:30.238Z,10.25
2023-05-02T06:48:58.655Z,9.52
2023-05-02T06:51:27.694Z,8.80
2023-05-02T06:53:55.931Z,8.70
2023-05-02T06:56:25.549Z,9.30
2023-05-02T06:58:53.978Z,8.85
2023-05-02T07:01:24.343Z,8.80
2023-05-02T07:03:53.458Z,7.88
2023-05-02T07:06:22.668Z,8.05
2023-05-02T07:08:51.152Z,6.55
2023-05-02T07:11:20.981Z,6.00
2023-05-02T07:13:49.370Z,5.90
2023-05-02T07:16:17.852Z,6.50
2023-05-02T07:18:47.740Z,7.13
2023-05-02T07:21:18.208Z,6.07
2023-05-02T07:23:46.549Z,5.47
2023-05-02T07:26:15.344Z,6.22
2023-05-02T07:28:43.860Z,6.13
2023-05-02T07:31:12.328Z,7.35
2023-05-02T07:33:40.587Z,6.68
2023-05-02T07:36:10.557Z,7.13
2023-05-02T07:38:38.889Z,6.65
2023-05-02T07:41:07.433Z,5.97
2023-05-02T07:43:35.821Z,6.70
2023-05-02T07:46:07.772Z,5.82
2023-05-02T07:48:36.211Z,5.05
2023-05-02T07:51:08.314Z,5.32
2023-05-02T07:53:38.038Z,6.40
2023-05-02T07:56:08.393Z,5.88
2023-05-02T07:58:37.166Z,5.60
2023-05-02T08:01:05.786Z,5.93
2023-05-02T08:03:34.231Z,5.75
2023-05-02T08:06:03.947Z,5.65
2023-05-02T08:08:32.296Z,5.18
2023-05-02T08:11:02.573Z,5.45
2023-05-02T08:13:30.938Z,5.07
2023-05-02T08:16:00.002Z,5.13
2023-05-02T08:18:28.795Z,5.35
2023-05-02T08:20:58.517Z,5.43
2023-05-02T08:23:26.928Z,5.60
2023-05-02T08:25:55.828Z,5.60
2023-05-02T08:28:25.649Z,5.47
2023-05-02T08:30:54.186Z,5.57
2023-05-02T08:33:22.593Z,5.03
2023-05-02T08:35:51.229Z,4.82
2023-05-02T08:38:19.678Z,5.28
2023-05-02T08:40:48.430Z,5.38
2023-05-02T08:43:18.030Z,5.72
2023-05-02T08:45:47.989Z,5.85
2023-05-02T08:48:18.066Z,5.28
2023-05-02T08:50:48.492Z,5.55
2023-05-02T08:53:18.997Z,6.03
2023-05-02T08:55:49.905Z,6.25
2023-05-02T08:58:18.234Z,6.20
2023-05-02T09:00:51.761Z,5.95
2023-05-02T09:03:26.528Z,5.80
2023-05-02T09:05:58.157Z,5.63
2023-05-02T09:08:26.731Z,6.05
2023-05-02T09:10:55.973Z,6.20
2023-05-02T09:13:34.548Z,6.78
2023-05-02T09:16:06.597Z,5.90
2023-05-02T09:18:37.391Z,8.65
2023-05-02T09:21:08.926Z,7.00
2023-05-02T09:23:39.383Z,6.10
2023-05-02T09:26:16.030Z,5.30
2023-05-02T09:28:45.688Z,4.57
2023-05-02T09:31:26.818Z,5.28
2023-05-02T09:33:55.986Z,5.15
2023-05-02T09:36:25.335Z,4.95
2023-05-02T09:38:53.579Z,4.90
2023-05-02T09:41:22.233Z,5.25
2023-05-02T09:43:57.320Z,5.50
2023-05-02T09:46:27.420Z,5.30
2023-05-02T09:48:57.090Z,5.18
2023-05-02T09:51:28.520Z,5.00
2023-05-02T09:53:56.849Z,5.13
2023-05-02T09:56:26.160Z,5.95
2023-05-02T09:59:14.553Z,4.90
2023-05-02T10:01:44.738Z,5.18
2023-05-02T10:04:16.364Z,4.97
2023-05-02T10:06:45.540Z,5.28
2023-05-02T10:09:19.741Z,5.20
2023-05-02T10:11:54.004Z,4.43
2023-05-02T10:14:24.668Z,4.97
2023-05-02T10:17:02.916Z,4.13
2023-05-02T10:19:34.718Z,3.70
2023-05-02T10:22:04.850Z,3.38
2023-05-02T10:24:35.622Z,3.45
2023-05-02T10:27:06.618Z,3.35
2023-05-02T10:29:36.134Z,3.58
2023-05-02T10:32:08.112Z,3.88
2023-05-02T10:34:37.573Z,3.53
2023-05-02T10:37:06.274Z,5.20
2023-05-02T10:39:34.959Z,3.53
2023-05-02T10:42:05.621Z,3.75
2023-05-02T10:44:34.933Z,3.80
2023-05-02T10:47:18.905Z,3.47
2023-05-02T10:49:54.326Z,3.30
2023-05-02T10:52:31.788Z,3.40
2023-05-02T10:55:20.512Z,3.38
2023-05-02T10:58:23.690Z,3.30
2023-05-02T11:00:53.730Z,3.10
2023-05-02T11:03:57.823Z,3.40
2023-05-02T11:06:26.812Z,3.42
2023-05-02T11:09:21.522Z,3.15
2023-05-02T11:11:52.709Z,3.45
2023-05-02T11:14:47.429Z,2.90
2023-05-02T11:17:16.089Z,3.17
2023-05-02T11:20:21.420Z,3.00
2023-05-02T11:22:51.691Z,2.70
2023-05-02T11:25:50.761Z,2.80
2023-05-02T11:28:41.379Z,2.80
2023-05-02T11:31:11.142Z,2.28
2023-05-02T11:33:39.808Z,1.52
2023-05-02T11:36:08.823Z,2.40
2023-05-02T11:38:39.842Z,2.72
2023-05-02T11:41:08.602Z,2.13
2023-05-02T11:43:37.337Z,1.60
2023-05-02T11:46:08.107Z,2.47
2023-05-02T11:48:37.398Z,2.38
2023-05-02T11:51:07.368Z,2.65
2023-05-02T11:53:43.297Z,2.53
2023-05-02T11:56:11.988Z,2.05
2023-05-02T11:58:41.340Z,2.20
2023-05-02T12:01:14.520Z,2.97
2023-05-02T12:03:43.521Z,2.58
2023-05-02T12:06:14.264Z,2.17
2023-05-02T12:08:45.206Z,2.85
2023-05-02T12:11:15.828Z,2.50
2023-05-02T12:13:48.817Z,2.15
2023-05-02T12:16:18.225Z,2.20
2023-05-02T12:18:48.042Z,2.38
2023-05-02T12:21:17.321Z,3.00
2023-05-02T12:23:47.612Z,3.20
2023-05-02T12:26:20.354Z,2.85
2023-05-02T12:28:52.475Z,2.88
2023-05-02T12:31:21.410Z,3.30
2023-05-02T12:33:50.775Z,3.30
2023-05-02T12:36:20.231Z,2.80
2023-05-02T12:38:55.029Z,3.80
2023-05-02T12:41:33.677Z,3.88
2023-05-02T12:44:02.348Z,4.30
2023-05-02T12:46:31.814Z,3.90
2023-05-02T12:49:05.232Z,3.67
2023-05-02T12:51:34.607Z,4.90
2023-05-02T12:54:04.859Z,4.78
2023-05-02T12:56:40.541Z,4.53
2023-05-02T12:59:09.509Z,4.40
2023-05-02T13:01:38.652Z,4.55
2023-05-02T13:04:07.002Z,4.22
2023-05-02T13:06:38.267Z,4.75
2023-05-02T13:09:08.324Z,5.20
2023-05-02T13:11:36.862Z,4.80
2023-05-02T13:14:05.947Z,5.32
2023-05-02T13:16:36.581Z,4.90
2023-05-02T13:19:05.886Z,5.10
2023-05-02T13:21:34.542Z,5.35
2023-05-02T13:24:04.127Z,5.25
2023-05-02T13:26:34.380Z,5.60
2023-05-02T13:29:02.870Z,4.57
2023-05-02T13:31:31.539Z,4.50
2023-05-02T13:33:59.842Z,4.90
2023-05-02T13:36:28.741Z,4.55
2023-05-02T13:38:57.721Z,3.88
2023-05-02T13:41:26.359Z,4.75
2023-05-02T13:43:56.913Z,3.85
2023-05-02T13:46:25.694Z,3.30
2023-05-02T13:48:54.024Z,4.00
2023-05-02T13:51:24.672Z,3.65
2023-05-02T13:53:52.949Z,3.38
2023-05-02T13:56:21.913Z,3.13
2023-05-02T13:58:50.107Z,2.78
2023-05-02T14:01:20.237Z,2.85
2023-05-02T14:03:48.705Z,2.53
2023-05-02T14:06:17.533Z,2.97
2023-05-02T14:08:46.000Z,2.60
2023-05-02T14:11:14.627Z,2.28
2023-05-02T14:13:42.935Z,2.20
2023-05-02T14:16:11.832Z,2.17
2023-05-02T14:18:41.439Z,1.52
2023-05-02T14:21:10.062Z,1.67
2023-05-02T14:23:38.463Z,1.60
2023-05-02T14:26:07.134Z,2.08
2023-05-02T14:28:36.311Z,1.73
2023-05-02T14:31:06.210Z,1.60
2023-05-02T14:33:34.453Z,1.73
2023-05-02T14:36:05.355Z,1.75
2023-05-02T14:38:33.709Z,1.60
2023-05-02T14:41:03.212Z,1.80
2023-05-02T14:43:31.621Z,1.42
2023-05-02T14:46:00.212Z,1.50
2023-05-02T14:48:28.515Z,1.60
2023-05-02T14:50:57.435Z,1.70
2023-05-02T14:53:27.468Z,1.30
2023-05-02T14:55:56.124Z,1.40
2023-05-02T14:58:24.330Z,1.10
2023-05-02T15:00:52.861Z,1.10
2023-05-02T15:03:21.400Z,1.40
2023-05-02T15:05:50.149Z,1.17
2023-05-02T15:08:18.421Z,1.20
2023-05-02T15:10:48.401Z,1.33
2023-05-02T15:13:16.612Z,0.90
2023-05-02T15:15:47.975Z,1.02
2023-05-02T15:18:16.456Z,1.15
2023-05-02T15:20:45.079Z,1.20
2023-05-02T15:23:13.429Z,1.13
2023-05-02T15:25:41.972Z,1.73
2023-05-02T15:28:11.668Z,1.30
2023-05-02T15:30:40.541Z,1.40
2023-05-02T15:33:09.191Z,1.90
2023-05-02T15:35:37.819Z,1.42
2023-05-02T15:38:06.628Z,1.83
2023-05-02T15:40:35.631Z,1.30
2023-05-02T15:43:03.976Z,1.35
2023-05-02T15:45:34.066Z,1.13
2023-05-02T15:48:02.476Z,1.27
2023-05-02T15:50:30.960Z,1.38
2023-05-02T15:52:59.385Z,1.88
2023-05-02T15:55:28.018Z,2.00
2023-05-02T15:57:56.201Z,1.85
2023-05-02T16:00:24.909Z,1.35
2023-05-02T16:02:55.535Z,1.42
2023-05-02T16:05:24.374Z,2.38
2023-05-02T16:07:52.688Z,2.13
2023-05-02T16:10:21.506Z,1.58
2023-05-02T16:12:49.785Z,1.73
2023-05-02T16:15:18.544Z,2.00
2023-05-02T16:17:48.785Z,1.67
2023-05-02T16:20:19.555Z,2.53
2023-05-02T16:22:48.558Z,1.90
2023-05-02T16:25:18.703Z,1.80
2023-05-02T16:27:47.075Z,2.05
2023-05-02T16:30:15.849Z,2.10
2023-05-02T16:32:44.111Z,1.50
2023-05-02T16:35:13.541Z,2.08
2023-05-02T16:37:43.494Z,2.08
2023-05-02T16:40:13.448Z,1.70
2023-05-02T16:42:41.757Z,2.08
2023-05-02T16:45:11.002Z,1.90
2023-05-02T16:47:39.399Z,1.77
2023-05-02T16:50:09.342Z,2.33
2023-05-02T16:52:38.167Z,2.05
2023-05-02T16:55:08.857Z,2.08
2023-05-02T16:57:38.958Z,1.65
2023-05-02T17:00:12.358Z,2.42
2023-05-02T17:02:40.781Z,2.38
2023-05-02T17:05:11.313Z,2.63
2023-05-02T17:07:40.864Z,2.40
2023-05-02T17:10:12.422Z,2.13
2023-05-02T17:12:40.697Z,2.33
2023-05-02T17:15:14.019Z,2.40
2023-05-02T17:17:43.173Z,2.30
2023-05-02T17:20:13.265Z,2.88
2023-05-02T17:22:41.774Z,2.55
2023-05-02T17:25:11.954Z,2.83
2023-05-02T17:27:41.136Z,2.75
2023-05-02T17:30:10.835Z,2.70
2023-05-02T17:32:39.094Z,2.55
2023-05-02T17:35:08.186Z,2.70
2023-05-02T17:37:38.174Z,2.63
2023-05-02T17:40:08.454Z,2.53
2023-05-02T17:42:38.112Z,2.70
2023-05-02T17:45:07.810Z,2.63
2023-05-02T17:47:36.047Z,2.88
2023-05-02T17:50:05.723Z,3.00
2023-05-02T17:52:35.553Z,2.20
2023-05-02T17:55:04.904Z,2.72
2023-05-02T17:57:33.316Z,2.92
2023-05-02T18:00:07.371Z,2.58
2023-05-02T18:02:37.912Z,2.42
2023-05-02T18:05:08.093Z,2.95
2023-05-02T18:07:36.374Z,2.53
2023-05-02T18:10:06.732Z,2.85
2023-05-02T18:12:35.251Z,2.83
2023-05-02T18:15:06.420Z,2.75
2023-05-02T18:17:35.263Z,2.60
2023-05-02T18:20:06.338Z,2.95
2023-05-02T18:22:34.996Z,2.90
2023-05-02T18:25:04.207Z,2.40
2023-05-02T18:27:33.571Z,3.00
2023-05-02T18:30:02.210Z,3.08
2023-05-02T18:32:34.469Z,2.80
2023-05-02T18:35:04.067Z,2.47
2023-05-02T18:37:32.519Z,2.70
2023-05-02T18:40:01.670Z,2.40
2023-05-02T18:42:29.979Z,3.05
2023-05-02T18:44:58.510Z,2.50
2023-05-02T18:47:26.866Z,2.70
2023-05-02T18:49:59.402Z,2.30
2023-05-02T18:52:30.384Z,2.53
2023-05-02T18:55:07.287Z,2.30
2023-05-02T18:57:35.937Z,2.95
2023-05-02T19:00:06.424Z,2.45
2023-05-02T19:02:34.897Z,3.42
2023-05-02T19:05:08.250Z,3.05
2023-05-02T19:07:38.505Z,3.78
2023-05-02T19:10:08.272Z,3.25
2023-05-02T19:12:36.809Z,2.55
2023-05-02T19:15:06.712Z,2.80
2023-05-02T19:17:35.268Z,2.95
2023-05-02T19:20:04.688Z,3.70
2023-05-02T19:22:37.204Z,3.15
2023-05-02T19:25:09.728Z,3.33
2023-05-02T19:27:38.749Z,4.05
2023-05-02T19:30:10.216Z,4.13
2023-05-02T19:32:38.613Z,3.95
2023-05-02T19:35:10.579Z,3.70
2023-05-02T19:37:40.517Z,3.67
2023-05-02T19:40:10.946Z,3.10
2023-05-02T19:42:39.485Z,3.33
2023-05-02T19:45:13.833Z,3.30
2023-05-02T19:47:43.838Z,2.95
2023-05-02T19:50:13.073Z,2.60
2023-05-02T19:52:44.483Z,3.50
2023-05-02T19:55:13.486Z,3.53
2023-05-02T19:57:44.200Z,3.27
2023-05-02T20:00:14.318Z,2.53
2023-05-02T20:02:42.826Z,3.43
2023-05-02T20:05:11.700Z,3.20
2023-05-02T20:07:39.990Z,3.47
2023-05-02T20:10:11.995Z,3.37
2023-05-02T20:12:44.741Z,3.00
2023-05-02T20:15:13.511Z,3.30
2023-05-02T20:17:43.332Z,3.03
2023-05-02T20:20:13.012Z,3.17
2023-05-02T20:22:41.379Z,3.30
2023-05-02T20:25:12.588Z,4.03
2023-05-02T20:27:41.018Z,3.60
2023-05-02T20:30:10.795Z,4.07
2023-05-02T20:32:39.199Z,3.50
2023-05-02T20:35:08.615Z,3.40
2023-05-02T20:37:37.196Z,3.60
2023-05-02T20:40:09.880Z,4.23
2023-05-02T20:42:41.453Z,3.93
2023-05-02T20:45:12.647Z,4.30
2023-05-02T20:47:41.009Z,4.57
2023-05-02T20:50:10.769Z,4.97
2023-05-02T20:52:39.553Z,4.87
2023-05-02T20:55:08.905Z,4.23
2023-05-02T20:57:37.220Z,4.90
2023-05-02T21:00:11.282Z,5.60
2023-05-02T21:02:39.642Z,5.13
2023-05-02T21:05:08.504Z,4.77
2023-05-02T21:07:36.946Z,4.53
2023-05-02T21:10:06.579Z,4.93
2023-05-02T21:12:34.879Z,3.90
2023-05-02T21:15:03.524Z,5.10
2023-05-02T21:17:33.028Z,4.10
2023-05-02T21:20:01.904Z,5.07
2023-05-02T21:22:30.400Z,4.30
2023-05-02T21:24:59.000Z,4.23
2023-05-02T21:27:27.238Z,3.53
2023-05-02T21:29:55.787Z,3.60
2023-05-02T21:32:25.846Z,4.77
2023-05-02T21:34:56.003Z,4.20
2023-05-02T21:37:24.543Z,3.37
2023-05-02T21:39:53.129Z,3.40
2023-05-02T21:42:21.441Z,3.57
2023-05-02T21:44:51.000Z,3.80
2023-05-02T21:47:21.220Z,3.43
2023-05-02T21:49:49.618Z,3.43
2023-05-02T21:52:19.249Z,3.70
2023-05-02T21:54:50.074Z,3.30
2023-05-02T21:57:18.440Z,4.10
2023-05-02T21:59:47.292Z,3.37
2023-05-02T22:02:15.605Z,3.40
2023-05-02T22:04:48.256Z,3.20
2023-05-02T22:07:16.904Z,3.13
2023-05-02T22:09:47.268Z,3.17
2023-05-02T22:12:15.450Z,3.20
2023-05-02T22:14:45.898Z,3.33
2023-05-02T22:17:18.458Z,2.80
2023-05-02T22:19:49.536Z,3.03
2023-05-02T22:22:17.695Z,2.67
2023-05-02T22:24:47.664Z,2.70
2023-05-02T22:27:15.950Z,2.57
2023-05-02T22:29:44.393Z,2.33
2023-05-02T22:32:12.583Z,2.47
2023-05-02T22:34:41.030Z,2.50
2023-05-02T22:37:09.778Z,2.00
2023-05-02T22:39:38.385Z,2.10
2023-05-02T22:42:07.896Z,2.40
2023-05-02T22:44:50.538Z,2.73
2023-05-02T22:47:22.739Z,2.13
2023-05-02T22:49:52.496Z,2.40
2023-05-02T22:52:21.196Z,2.50
2023-05-02T22:54:49.685Z,2.30
2023-05-02T22:57:19.407Z,2.40
2023-05-02T22:59:47.883Z,2.53
2023-05-02T23:02:16.297Z,2.47
2023-05-02T23:04:45.052Z,2.07
2023-05-02T23:07:13.411Z,2.57
2023-05-02T23:09:41.949Z,2.37
2023-05-02T23:12:10.141Z,2.57
2023-05-02T23:14:40.258Z,2.13
2023-05-02T23:17:08.690Z,2.00
2023-05-02T23:19:37.240Z,2.33
2023-05-02T23:22:05.654Z,2.30
2023-05-02T23:24:34.345Z,2.10
2023-05-02T23:27:03.783Z,1.97
2023-05-02T23:29:32.304Z,2.00
2023-05-02T23:32:02.466Z,1.73
2023-05-02T23:34:32.096Z,2.00
2023-05-02T23:37:00.936Z,2.47
2023-05-02T23:39:29.480Z,1.97
2023-05-02T23:41:58.411Z,2.03
2023-05-02T23:44:26.932Z,1.97
2023-05-02T23:46:55.422Z,1.90
2023-05-02T23:49:25.492Z,1.77
2023-05-02T23:51:53.937Z,1.83
2023-05-02T23:54:22.533Z,1.80
2023-05-02T23:56:50.966Z,1.90
2023-05-02T23:59:19.492Z,1.60
